KOCH/OCH METAR and TAF weather

Enter ICAO airport designator
Station Type Date Time Source
KOCH METAR 2022/09/28 17:56 UTC NOAA

KOCH 281756Z AUTO 13008KT 10SM CLR 30/06 A3026 RMK AO2 SLP247 T03000056 10300 20106 58006


Station Type Date Time Source
KOCH Decoded METAR 2022/09/28 17:56 UTC NOAA

Nacogdoches, A L Mangham Jr. Regional Airport, TX, United States (KOCH) 31-35N 094-43W
Sep 28, 2022 - 01:56 PM EDT / 2022.09.28 1756 UTC
Wind: from the SE (130 degrees) at 9 MPH (8 KT):0
Visibility: 10 mile(s):0
Sky conditions: clear
Temperature: 86.0 F (30.0 C)
Dew Point: 42.1 F (5.6 C)
Relative Humidity: 21%
Pressure (altimeter): 30.26 in. Hg (1024 hPa)
Pressure tendency: 0.02 inches (0.6 hPa) lower than three hours ago
ob: KOCH 281756Z AUTO 13008KT 10SM CLR 30/06 A3026 RMK AO2 SLP247 T03000056 10300 20106 58006
cycle: 18

Station Type Date Time Source
KOCH TAF UTC NOAA

Error!

Example: see airport list